Time;durP1;ratioP1;P1;durP2;ratioP2;P2;SDS_P1;SDS_P2;PMS_P1;PMS_P2;Temp;Humidity;BMP_temperature;BMP_pressure;BME280_temperature;BME280_humidity;BME280_pressure;Samples;Min_cycle;Max_cycle;Signal;HPM_P1;HPM_P2
2023/05/05 00:01:05;;;;;;;4.80;0.70;;;;;;;;;;5035932;28;20468;-87
2023/05/05 00:03:33;;;;;;;1.43;0.83;;;;;;;;;;5039276;28;20531;-80
2023/05/05 00:05:59;;;;;;;2.60;0.90;;;;;;;;;;5041667;28;20559;-82
2023/05/05 00:08:25;;;;;;;4.43;0.73;;;;;;;;;;5044610;28;20510;-83
2023/05/05 00:10:51;;;;;;;3.07;1.07;;;;;;;;;;5041758;28;20170;-83
2023/05/05 00:13:17;;;;;;;4.80;1.07;;;;;;;;;;5043241;28;20424;-80
2023/05/05 00:15:44;;;;;;;4.37;0.73;;;;;;;;;;5043492;28;20417;-82
2023/05/05 00:18:11;;;;;;;2.83;0.40;;;;;;;;;;5042019;28;20496;-82
2023/05/05 00:20:37;;;;;;;6.10;1.37;;;;;;;;;;5042869;28;20475;-80
2023/05/05 00:23:03;;;;;;;1.53;1.10;;;;;;;;;;5045099;28;20864;-85
2023/05/05 00:25:28;;;;;;;1.10;0.40;;;;;;;;;;5041721;28;20425;-80
2023/05/05 00:27:54;;;;;;;3.27;1.03;;;;;;;;;;5043340;28;20954;-79
2023/05/05 00:30:21;;;;;;;4.73;0.83;;;;;;;;;;5042447;28;20520;-82
2023/05/05 00:32:47;;;;;;;5.50;1.33;;;;;;;;;;5041671;28;20416;-79
2023/05/05 00:35:13;;;;;;;5.20;1.10;;;;;;;;;;5036023;28;20444;-80
2023/05/05 00:37:39;;;;;;;5.60;1.13;;;;;;;;;;5041597;28;20433;-78
2023/05/05 00:40:06;;;;;;;4.93;1.07;;;;;;;;;;5024008;28;20488;-80
2023/05/05 00:42:39;;;;;;;5.40;1.43;;;;;;;;;;5040398;28;20489;-79
2023/05/05 00:45:05;;;;;;;4.53;1.70;;;;;;;;;;5043195;28;20417;-78
2023/05/05 00:47:31;;;;;;;2.83;0.87;;;;;;;;;;5041424;28;20429;-78
2023/05/05 00:49:57;;;;;;;8.33;0.77;;;;;;;;;;5043120;28;20505;-79
2023/05/05 00:52:23;;;;;;;4.00;0.90;;;;;;;;;;5042888;28;20416;-78
2023/05/05 00:54:49;;;;;;;5.73;1.20;;;;;;;;;;5041474;28;20442;-81
2023/05/05 00:57:16;;;;;;;2.73;0.83;;;;;;;;;;5041828;28;20503;-79
2023/05/05 00:59:43;;;;;;;5.43;1.43;;;;;;;;;;5048545;28;20478;-79
2023/05/05 01:02:09;;;;;;;2.37;1.20;;;;;;;;;;5045480;28;20411;-79
2023/05/05 01:04:35;;;;;;;1.97;0.63;;;;;;;;;;5047208;28;20532;-78
2023/05/05 01:07:15;;;;;;;4.97;1.07;;;;;;;;;;5026770;28;20423;-78
2023/05/05 01:09:49;;;;;;;5.87;1.23;;;;;;;;;;5044633;28;20459;-78
2023/05/05 01:12:21;;;;;;;3.90;1.17;;;;;;;;;;5046923;28;20426;-80
2023/05/05 01:14:52;;;;;;;3.93;1.30;;;;;;;;;;5047165;28;20411;-82
2023/05/05 01:17:24;;;;;;;2.47;0.80;;;;;;;;;;5044338;28;20426;-82
2023/05/05 01:19:57;;;;;;;2.93;0.73;;;;;;;;;;5046816;28;20465;-79
2023/05/05 01:22:24;;;;;;;7.90;1.47;;;;;;;;;;5046438;28;20791;-81
2023/05/05 01:24:56;;;;;;;3.53;1.07;;;;;;;;;;5047292;28;20403;-79
2023/05/05 01:27:33;;;;;;;2.17;0.93;;;;;;;;;;5045740;28;20516;-81
2023/05/05 01:30:16;;;;;;;5.03;1.40;;;;;;;;;;5045490;28;20415;-81
2023/05/05 01:32:46;;;;;;;2.17;0.73;;;;;;;;;;5045872;28;20413;-82
2023/05/05 01:35:12;;;;;;;2.90;0.50;;;;;;;;;;5044455;28;20473;-80
2023/05/05 01:37:45;;;;;;;5.00;0.90;;;;;;;;;;5046079;28;20413;-80
2023/05/05 01:40:11;;;;;;;2.33;1.07;;;;;;;;;;5046537;28;20212;-79
2023/05/05 01:42:39;;;;;;;4.50;1.07;;;;;;;;;;5044816;28;20403;-82
2023/05/05 01:45:07;;;;;;;2.73;1.07;;;;;;;;;;5044792;28;20439;-79
2023/05/05 01:47:33;;;;;;;4.30;1.20;;;;;;;;;;5046552;28;20411;-79
2023/05/05 01:49:59;;;;;;;3.77;1.37;;;;;;;;;;5045067;28;20441;-78
2023/05/05 01:52:26;;;;;;;3.97;0.70;;;;;;;;;;5044624;28;20752;-78
2023/05/05 01:54:52;;;;;;;4.47;1.03;;;;;;;;;;5046092;28;20766;-78
2023/05/05 01:57:20;;;;;;;5.60;1.43;;;;;;;;;;5026161;28;20427;-78
2023/05/05 01:59:46;;;;;;;3.07;0.73;;;;;;;;;;5040563;28;21055;-78
2023/05/05 02:02:12;;;;;;;4.17;1.27;;;;;;;;;;5046275;28;20486;-84
2023/05/05 02:04:41;;;;;;;3.50;1.10;;;;;;;;;;5044729;28;20453;-78
2023/05/05 02:07:07;;;;;;;2.40;0.97;;;;;;;;;;5044226;28;20415;-79
2023/05/05 02:09:34;;;;;;;2.00;0.63;;;;;;;;;;5046363;28;20459;-79
2023/05/05 02:12:01;;;;;;;3.53;0.90;;;;;;;;;;5044877;28;20430;-79
2023/05/05 02:14:28;;;;;;;7.27;1.10;;;;;;;;;;5043517;28;20413;-78
2023/05/05 02:16:56;;;;;;;2.67;1.27;;;;;;;;;;5035807;28;20415;-78
2023/05/05 02:19:23;;;;;;;3.30;0.77;;;;;;;;;;5046592;28;20558;-79
2023/05/05 02:21:49;;;;;;;4.87;1.43;;;;;;;;;;5026052;28;20436;-80
2023/05/05 02:24:15;;;;;;;3.17;1.10;;;;;;;;;;5038531;28;20423;-78
2023/05/05 02:26:43;;;;;;;3.20;1.57;;;;;;;;;;5044418;28;20425;-80
2023/05/05 02:29:16;;;;;;;2.30;0.97;;;;;;;;;;5043189;28;20511;-78
2023/05/05 02:31:43;;;;;;;4.47;0.70;;;;;;;;;;5044662;28;20422;-80
2023/05/05 02:34:10;;;;;;;2.00;0.77;;;;;;;;;;5051724;28;20965;-83
2023/05/05 02:36:37;;;;;;;4.40;1.60;;;;;;;;;;5055489;28;20784;-80
2023/05/05 02:39:13;;;;;;;4.53;0.87;;;;;;;;;;5035888;28;20421;-87
2023/05/05 02:41:40;;;;;;;1.83;0.67;;;;;;;;;;5035194;28;20466;-86
2023/05/05 02:44:07;;;;;;;2.87;0.93;;;;;;;;;;5035866;28;20415;-85
2023/05/05 02:46:34;;;;;;;3.97;0.70;;;;;;;;;;5037115;28;20427;-86
2023/05/05 02:49:00;;;;;;;1.73;0.77;;;;;;;;;;5037515;28;20821;-86
2023/05/05 02:51:26;;;;;;;3.20;0.77;;;;;;;;;;5020145;28;20425;-86
2023/05/05 02:53:52;;;;;;;3.57;1.30;;;;;;;;;;5038279;28;20571;-82
2023/05/05 02:56:37;;;;;;;5.40;1.10;;;;;;;;;;5019862;28;20467;-85
2023/05/05 02:59:05;;;;;;;5.37;1.33;;;;;;;;;;5037618;28;20510;-86
2023/05/05 03:01:37;;;;;;;2.13;0.70;;;;;;;;;;5020882;28;20423;-86
2023/05/05 03:04:15;;;;;;;2.13;1.13;;;;;;;;;;5038057;28;20428;-89
2023/05/05 03:06:42;;;;;;;4.00;0.90;;;;;;;;;;5038795;28;20428;-87
2023/05/05 03:09:25;;;;;;;3.17;0.77;;;;;;;;;;5038123;28;20478;-86
2023/05/05 03:12:02;;;;;;;4.67;1.80;;;;;;;;;;5038623;28;20422;-86
2023/05/05 03:14:30;;;;;;;4.00;1.00;;;;;;;;;;5039578;28;20882;-87
2023/05/05 03:16:56;;;;;;;2.80;1.17;;;;;;;;;;5038730;28;20419;-85
2023/05/05 03:19:22;;;;;;;4.03;0.93;;;;;;;;;;5037506;28;20498;-86
2023/05/05 03:21:48;;;;;;;3.53;0.80;;;;;;;;;;5036881;28;20905;-85
2023/05/05 03:24:15;;;;;;;3.77;1.43;;;;;;;;;;5037181;28;20419;-86
2023/05/05 03:26:41;;;;;;;1.70;0.77;;;;;;;;;;5036107;28;20419;-85
2023/05/05 03:29:07;;;;;;;3.90;0.63;;;;;;;;;;5036103;28;20456;-84
2023/05/05 03:31:33;;;;;;;2.10;0.93;;;;;;;;;;5036488;28;20755;-84
2023/05/05 03:33:59;;;;;;;3.70;1.13;;;;;;;;;;5036252;28;20413;-86
2023/05/05 03:36:26;;;;;;;2.17;1.00;;;;;;;;;;5035705;28;20422;-83
2023/05/05 03:38:52;;;;;;;4.90;1.17;;;;;;;;;;5017751;28;20417;-85
2023/05/05 03:41:18;;;;;;;3.37;1.17;;;;;;;;;;5035450;28;20461;-85
2023/05/05 03:43:44;;;;;;;3.80;1.20;;;;;;;;;;5035894;28;20942;-86
2023/05/05 03:46:10;;;;;;;3.30;1.27;;;;;;;;;;5018606;28;20445;-85
2023/05/05 03:48:36;;;;;;;5.93;1.13;;;;;;;;;;5036647;28;20459;-85
2023/05/05 03:51:02;;;;;;;3.10;1.00;;;;;;;;;;5036339;28;21068;-88
2023/05/05 03:53:27;;;;;;;6.13;0.97;;;;;;;;;;5037369;28;20748;-88
2023/05/05 03:55:53;;;;;;;2.90;1.47;;;;;;;;;;5036985;28;20440;-86
2023/05/05 03:58:19;;;;;;;5.40;1.73;;;;;;;;;;5037206;28;20411;-84
2023/05/05 04:00:45;;;;;;;4.90;1.10;;;;;;;;;;5018023;28;20419;-86
2023/05/05 04:03:11;;;;;;;1.80;0.97;;;;;;;;;;5035493;28;20412;-88
2023/05/05 04:05:37;;;;;;;7.00;1.23;;;;;;;;;;5033181;28;20460;-79
2023/05/05 04:08:03;;;;;;;3.77;0.87;;;;;;;;;;5033262;28;20404;-85
2023/05/05 04:10:29;;;;;;;5.97;1.30;;;;;;;;;;5015027;28;20521;-78
2023/05/05 04:12:55;;;;;;;3.40;1.25;;;;;;;;;;5031942;28;20508;-86
2023/05/05 04:15:21;;;;;;;3.30;1.60;;;;;;;;;;5032785;28;20168;-77
2023/05/05 04:17:50;;;;;;;2.33;1.43;;;;;;;;;;5032713;28;20999;-78
2023/05/05 04:20:19;;;;;;;2.80;1.20;;;;;;;;;;5032735;28;20568;-79
2023/05/05 04:22:45;;;;;;;3.10;1.63;;;;;;;;;;5032599;28;20413;-84
2023/05/05 04:25:11;;;;;;;6.90;1.40;;;;;;;;;;5032431;28;20415;-84
2023/05/05 04:27:37;;;;;;;3.87;0.93;;;;;;;;;;5034136;28;20755;-85
2023/05/05 04:30:03;;;;;;;4.37;0.90;;;;;;;;;;5035609;28;20219;-83
2023/05/05 04:32:29;;;;;;;2.90;1.07;;;;;;;;;;5033629;28;20406;-81
2023/05/05 04:34:55;;;;;;;2.20;0.97;;;;;;;;;;5032981;28;20431;-81
2023/05/05 04:37:21;;;;;;;5.90;1.70;;;;;;;;;;5033200;28;20742;-82
2023/05/05 04:39:47;;;;;;;6.10;1.37;;;;;;;;;;5036678;28;20504;-85
2023/05/05 04:42:13;;;;;;;3.70;1.80;;;;;;;;;;5036957;28;20965;-85
2023/05/05 04:44:38;;;;;;;3.23;1.40;;;;;;;;;;5036255;28;20504;-84
2023/05/05 04:47:04;;;;;;;4.07;2.30;;;;;;;;;;5036497;28;20414;-86
2023/05/05 04:49:30;;;;;;;8.33;2.40;;;;;;;;;;5015151;28;20470;-83
2023/05/05 04:51:57;;;;;;;9.40;2.27;;;;;;;;;;5014732;28;20435;-84
2023/05/05 04:54:23;;;;;;;8.13;1.60;;;;;;;;;;5032427;28;20412;-84
2023/05/05 04:56:49;;;;;;;7.30;2.27;;;;;;;;;;5031724;28;20763;-86
2023/05/05 04:59:15;;;;;;;3.40;1.83;;;;;;;;;;5032395;28;20423;-86
2023/05/05 05:01:41;;;;;;;9.93;2.90;;;;;;;;;;5032146;28;20412;-85
2023/05/05 05:04:12;;;;;;;3.97;1.52;;;;;;;;;;5026959;28;1004429;-79
2023/05/05 05:06:38;;;;;;;4.97;2.37;;;;;;;;;;5032920;28;20185;-85
2023/05/05 05:09:04;;;;;;;4.27;2.20;;;;;;;;;;5015553;28;20918;-84
2023/05/05 05:11:29;;;;;;;8.23;2.50;;;;;;;;;;5032478;28;20479;-85
2023/05/05 05:13:55;;;;;;;6.00;2.47;;;;;;;;;;5032767;28;20409;-83
2023/05/05 05:16:21;;;;;;;6.90;1.90;;;;;;;;;;5032833;28;20538;-84
2023/05/05 05:18:47;;;;;;;7.90;2.17;;;;;;;;;;5033188;28;20463;-85
2023/05/05 05:21:13;;;;;;;4.50;2.60;;;;;;;;;;5032849;28;20182;-84
2023/05/05 05:23:39;;;;;;;3.10;2.13;;;;;;;;;;5033072;28;20425;-79
2023/05/05 05:26:05;;;;;;;4.57;2.37;;;;;;;;;;5033029;28;20412;-87
2023/05/05 05:28:31;;;;;;;7.67;2.83;;;;;;;;;;5033721;28;20210;-84
2023/05/05 05:30:57;;;;;;;8.77;2.90;;;;;;;;;;5033931;28;20559;-83
2023/05/05 05:33:23;;;;;;;3.50;2.07;;;;;;;;;;5032886;28;20466;-84
2023/05/05 05:35:48;;;;;;;5.37;2.30;;;;;;;;;;5032662;28;20413;-84
2023/05/05 05:38:16;;;;;;;7.83;3.07;;;;;;;;;;5015200;28;20791;-85
2023/05/05 05:40:42;;;;;;;4.00;1.70;;;;;;;;;;5033822;28;20172;-83
2023/05/05 05:43:08;;;;;;;6.93;2.70;;;;;;;;;;5033627;28;20880;-87
2023/05/05 05:45:34;;;;;;;10.00;2.53;;;;;;;;;;5036810;28;20418;-80
2023/05/05 05:48:00;;;;;;;5.17;2.33;;;;;;;;;;5037569;28;20175;-88
2023/05/05 05:50:27;;;;;;;8.23;3.90;;;;;;;;;;5038630;28;21048;-86
2023/05/05 05:52:53;;;;;;;7.87;2.23;;;;;;;;;;5019934;28;20419;-83
2023/05/05 05:55:19;;;;;;;4.37;2.67;;;;;;;;;;5020553;28;20531;-86
2023/05/05 05:57:45;;;;;;;5.13;2.30;;;;;;;;;;5036688;28;20516;-85
2023/05/05 06:00:17;;;;;;;8.67;3.00;;;;;;;;;;5036957;28;20452;-84
2023/05/05 06:02:43;;;;;;;8.57;2.17;;;;;;;;;;5036849;28;20409;-86
2023/05/05 06:05:09;;;;;;;7.37;2.70;;;;;;;;;;5035724;28;20465;-85
2023/05/05 06:07:35;;;;;;;4.40;2.03;;;;;;;;;;5035653;28;20217;-88
2023/05/05 06:10:01;;;;;;;6.37;2.10;;;;;;;;;;5037533;28;21048;-88
2023/05/05 06:12:27;;;;;;;3.90;1.80;;;;;;;;;;5037202;28;20402;-86
2023/05/05 06:14:53;;;;;;;5.03;2.03;;;;;;;;;;5021023;28;20433;-89
2023/05/05 06:17:18;;;;;;;4.50;2.87;;;;;;;;;;5039855;28;20177;-86
2023/05/05 06:19:44;;;;;;;8.30;2.37;;;;;;;;;;5020205;28;20176;-83
2023/05/05 06:22:13;;;;;;;2.37;1.17;;;;;;;;;;5017651;28;20266;-83
2023/05/05 06:24:39;;;;;;;5.23;2.30;;;;;;;;;;5035604;28;20182;-84
2023/05/05 06:27:05;;;;;;;3.50;1.80;;;;;;;;;;5035663;28;20419;-85
2023/05/05 06:29:31;;;;;;;4.07;2.13;;;;;;;;;;5035946;28;20553;-85
2023/05/05 06:31:59;;;;;;;4.70;1.70;;;;;;;;;;5036699;28;20261;-86
2023/05/05 06:34:25;;;;;;;3.70;2.43;;;;;;;;;;5018494;28;21033;-83
2023/05/05 06:36:51;;;;;;;3.20;2.27;;;;;;;;;;5035531;28;20420;-86
2023/05/05 06:39:17;;;;;;;7.37;2.10;;;;;;;;;;5035064;28;20418;-85
2023/05/05 06:41:43;;;;;;;6.60;2.33;;;;;;;;;;5035016;28;20507;-83
2023/05/05 06:44:10;;;;;;;4.63;1.83;;;;;;;;;;5035194;28;20439;-84
2023/05/05 06:46:36;;;;;;;4.30;1.63;;;;;;;;;;5040017;28;20176;-86
2023/05/05 06:49:02;;;;;;;5.37;2.00;;;;;;;;;;5036717;28;20443;-91
2023/05/05 06:51:30;;;;;;;6.23;2.17;;;;;;;;;;5037985;28;20472;-85
2023/05/05 06:53:56;;;;;;;4.20;1.93;;;;;;;;;;5038503;28;20776;-87
2023/05/05 06:56:22;;;;;;;4.73;3.00;;;;;;;;;;5036194;28;20503;-85
2023/05/05 06:58:49;;;;;;;2.97;1.60;;;;;;;;;;5019532;28;20183;-86
2023/05/05 07:01:15;;;;;;;4.20;1.73;;;;;;;;;;5021000;28;20862;-84
2023/05/05 07:03:41;;;;;;;4.83;1.57;;;;;;;;;;5035470;28;20424;-86
2023/05/05 07:06:07;;;;;;;7.33;2.23;;;;;;;;;;5035692;28;20237;-83
2023/05/05 07:08:33;;;;;;;8.07;2.53;;;;;;;;;;5036878;28;20419;-88
2023/05/05 07:10:59;;;;;;;3.73;1.63;;;;;;;;;;5036494;28;20473;-88
2023/05/05 07:13:25;;;;;;;5.13;1.27;;;;;;;;;;5036414;28;20170;-88
2023/05/05 07:15:52;;;;;;;2.73;1.30;;;;;;;;;;5036534;28;20545;-89
2023/05/05 07:18:19;;;;;;;5.77;1.77;;;;;;;;;;5037103;28;20441;-90
2023/05/05 07:20:45;;;;;;;8.63;3.37;;;;;;;;;;5036820;28;20500;-89
2023/05/05 07:23:11;;;;;;;6.83;2.33;;;;;;;;;;5035787;28;20567;-88
2023/05/05 07:25:37;;;;;;;7.20;2.13;;;;;;;;;;5035867;28;20412;-88
2023/05/05 07:28:06;;;;;;;4.93;2.10;;;;;;;;;;5036432;28;20421;-86
2023/05/05 07:30:32;;;;;;;7.57;2.40;;;;;;;;;;5035994;28;20472;-88
2023/05/05 07:32:58;;;;;;;6.10;2.70;;;;;;;;;;5035972;28;20409;-86
2023/05/05 07:35:25;;;;;;;7.80;2.43;;;;;;;;;;5035743;28;20177;-87
2023/05/05 07:37:51;;;;;;;6.67;2.00;;;;;;;;;;5035015;28;20177;-90
2023/05/05 07:40:17;;;;;;;5.47;2.27;;;;;;;;;;5034607;28;20834;-89
2023/05/05 07:42:42;;;;;;;5.60;2.10;;;;;;;;;;5037988;28;20180;-87
2023/05/05 07:45:18;;;;;;;6.40;3.10;;;;;;;;;;5036285;28;20466;-87
2023/05/05 07:47:46;;;;;;;4.30;2.43;;;;;;;;;;5035967;28;20169;-86
2023/05/05 07:50:12;;;;;;;5.50;2.67;;;;;;;;;;5035603;28;20482;-88
2023/05/05 07:52:38;;;;;;;4.73;2.03;;;;;;;;;;5037244;28;20775;-88
2023/05/05 07:55:04;;;;;;;6.90;2.30;;;;;;;;;;5037433;28;20422;-88
2023/05/05 07:57:33;;;;;;;4.87;2.00;;;;;;;;;;5035258;28;20771;-90
2023/05/05 07:59:59;;;;;;;5.80;2.80;;;;;;;;;;5036739;28;20459;-86
2023/05/05 08:02:25;;;;;;;5.83;2.37;;;;;;;;;;5035976;28;20408;-84
2023/05/05 08:04:51;;;;;;;6.73;2.67;;;;;;;;;;5034634;28;20232;-85
2023/05/05 08:07:17;;;;;;;7.03;2.43;;;;;;;;;;5033257;28;20412;-84
2023/05/05 08:09:43;;;;;;;5.53;2.17;;;;;;;;;;5033215;28;20212;-84
2023/05/05 08:12:11;;;;;;;5.30;2.10;;;;;;;;;;5033069;28;20612;-84
2023/05/05 08:14:43;;;;;;;4.70;1.80;;;;;;;;;;5033293;28;20166;-83
2023/05/05 08:17:09;;;;;;;4.77;2.70;;;;;;;;;;5033304;28;20507;-84
2023/05/05 08:19:37;;;;;;;5.80;2.20;;;;;;;;;;5033173;28;20507;-79
2023/05/05 08:22:03;;;;;;;5.03;2.70;;;;;;;;;;5015626;28;20178;-84
2023/05/05 08:24:29;;;;;;;4.60;3.00;;;;;;;;;;5033111;28;20422;-85
2023/05/05 08:26:55;;;;;;;4.90;2.60;;;;;;;;;;5032845;28;20466;-84
2023/05/05 08:29:21;;;;;;;7.13;2.30;;;;;;;;;;5033011;28;20412;-84
2023/05/05 08:31:47;;;;;;;7.00;2.30;;;;;;;;;;5033122;28;20676;-85
2023/05/05 08:34:13;;;;;;;4.97;2.10;;;;;;;;;;5033021;28;20737;-84
2023/05/05 08:36:39;;;;;;;5.90;2.80;;;;;;;;;;5033104;28;20177;-85
2023/05/05 08:39:05;;;;;;;5.03;2.33;;;;;;;;;;5015241;28;20834;-84
2023/05/05 08:41:32;;;;;;;5.97;2.40;;;;;;;;;;5014878;28;20265;-84
2023/05/05 08:43:58;;;;;;;7.80;3.10;;;;;;;;;;5015183;28;20911;-85
2023/05/05 08:46:24;;;;;;;6.93;2.73;;;;;;;;;;5032972;28;20406;-84
2023/05/05 08:48:54;;;;;;;5.47;2.00;;;;;;;;;;5032830;28;20421;-85
2023/05/05 08:51:20;;;;;;;3.70;2.30;;;;;;;;;;5032901;28;20569;-84
2023/05/05 08:53:51;;;;;;;4.93;1.90;;;;;;;;;;5032914;28;20451;-83
2023/05/05 08:56:18;;;;;;;6.07;2.80;;;;;;;;;;5032296;28;20416;-84
2023/05/05 08:58:45;;;;;;;3.90;2.33;;;;;;;;;;5034999;28;20460;-85
2023/05/05 09:01:11;;;;;;;3.70;2.30;;;;;;;;;;5033413;28;20402;-90
2023/05/05 09:03:37;;;;;;;4.67;1.90;;;;;;;;;;5016055;28;20436;-86
2023/05/05 09:06:04;;;;;;;5.93;2.53;;;;;;;;;;5033688;28;20519;-88
2023/05/05 09:08:31;;;;;;;5.40;2.70;;;;;;;;;;5037399;28;20405;-85
2023/05/05 09:10:56;;;;;;;5.70;2.40;;;;;;;;;;5036983;28;20468;-85
2023/05/05 09:13:26;;;;;;;6.80;2.83;;;;;;;;;;5019251;28;20424;-85
2023/05/05 09:15:52;;;;;;;6.70;2.63;;;;;;;;;;5018599;28;20530;-83
2023/05/05 09:18:17;;;;;;;3.07;2.77;;;;;;;;;;5018706;28;20452;-86
2023/05/05 09:20:43;;;;;;;6.77;2.30;;;;;;;;;;5038556;28;20666;-87
2023/05/05 09:23:17;;;;;;;3.80;2.67;;;;;;;;;;5004305;28;20863;-87
2023/05/05 09:25:44;;;;;;;5.63;2.73;;;;;;;;;;5036838;28;20256;-90
2023/05/05 09:28:17;;;;;;;4.87;2.80;;;;;;;;;;5037010;28;20409;-89
2023/05/05 09:30:46;;;;;;;4.73;2.70;;;;;;;;;;5036995;28;20534;-88
2023/05/05 09:33:14;;;;;;;7.50;3.20;;;;;;;;;;5036745;28;20409;-82
2023/05/05 09:35:53;;;;;;;4.43;2.80;;;;;;;;;;5037415;28;20416;-89
2023/05/05 09:38:19;;;;;;;5.03;2.77;;;;;;;;;;5037999;28;20412;-87
2023/05/05 09:40:49;;;;;;;5.27;3.10;;;;;;;;;;5036296;28;20420;-86
2023/05/05 09:43:16;;;;;;;6.70;3.20;;;;;;;;;;5037043;28;20422;-90
2023/05/05 09:45:42;;;;;;;6.00;2.90;;;;;;;;;;5016322;28;20407;-84
2023/05/05 09:48:23;;;;;;;5.23;2.47;;;;;;;;;;5052981;28;20422;-86
2023/05/05 09:50:49;;;;;;;4.30;2.70;;;;;;;;;;5037088;28;20472;-86
2023/05/05 09:53:15;;;;;;;5.27;2.87;;;;;;;;;;5033089;28;20417;-84
2023/05/05 09:55:41;;;;;;;3.70;2.33;;;;;;;;;;5011223;28;20437;-85
2023/05/05 09:58:24;;;;;;;5.50;2.47;;;;;;;;;;5033928;28;20413;-84
2023/05/05 10:00:51;;;;;;;6.33;2.50;;;;;;;;;;5034584;28;20169;-86
2023/05/05 10:03:17;;;;;;;4.73;2.50;;;;;;;;;;5034361;28;20423;-82
2023/05/05 10:05:47;;;;;;;8.90;3.00;;;;;;;;;;5034622;28;20474;-84
2023/05/05 10:08:13;;;;;;;5.50;2.40;;;;;;;;;;5034868;28;20906;-85
2023/05/05 10:10:46;;;;;;;4.47;2.90;;;;;;;;;;5034125;28;20481;-85
2023/05/05 10:13:12;;;;;;;3.80;2.80;;;;;;;;;;5034530;28;20409;-85
2023/05/05 10:15:38;;;;;;;4.03;2.00;;;;;;;;;;5034623;28;20428;-85
2023/05/05 10:18:05;;;;;;;3.80;2.70;;;;;;;;;;5034488;28;20173;-86
2023/05/05 10:20:32;;;;;;;3.27;2.07;;;;;;;;;;5034535;28;20424;-85
2023/05/05 10:23:01;;;;;;;4.33;2.70;;;;;;;;;;5034437;28;20413;-84
2023/05/05 10:25:33;;;;;;;5.10;3.00;;;;;;;;;;5033869;28;20429;-85
2023/05/05 10:28:00;;;;;;;2.93;2.50;;;;;;;;;;5033280;28;20423;-83
2023/05/05 10:30:30;;;;;;;5.13;3.13;;;;;;;;;;5033412;28;21052;-85
2023/05/05 10:33:16;;;;;;;4.27;2.23;;;;;;;;;;5016434;28;20428;-86
2023/05/05 10:35:43;;;;;;;3.60;2.83;;;;;;;;;;5033746;28;20417;-86
2023/05/05 10:38:10;;;;;;;8.17;3.23;;;;;;;;;;5034280;28;20429;-85
2023/05/05 10:40:36;;;;;;;4.43;2.00;;;;;;;;;;5033100;28;20474;-85
2023/05/05 10:43:02;;;;;;;6.20;2.40;;;;;;;;;;5033683;28;20826;-84
2023/05/05 10:45:28;;;;;;;4.50;2.17;;;;;;;;;;5016234;28;20774;-85
2023/05/05 10:47:55;;;;;;;5.00;2.73;;;;;;;;;;5034014;28;20419;-83
2023/05/05 10:50:35;;;;;;;3.43;3.13;;;;;;;;;;5033726;28;20480;-84
2023/05/05 10:53:20;;;;;;;6.77;2.43;;;;;;;;;;5033789;28;20410;-84
2023/05/05 10:55:52;;;;;;;3.37;2.00;;;;;;;;;;5033161;28;20847;-86
2023/05/05 10:58:33;;;;;;;4.93;2.23;;;;;;;;;;5033556;28;20933;-85
2023/05/05 11:00:58;;;;;;;6.53;2.03;;;;;;;;;;5033748;28;20496;-85
2023/05/05 11:03:25;;;;;;;2.97;1.60;;;;;;;;;;5016557;28;20519;-88
2023/05/05 11:06:06;;;;;;;4.27;2.67;;;;;;;;;;5034581;28;20490;-89
2023/05/05 11:08:36;;;;;;;4.97;1.80;;;;;;;;;;5017204;28;20475;-87
2023/05/05 11:11:02;;;;;;;3.00;1.80;;;;;;;;;;5033608;28;21064;-89
2023/05/05 11:13:28;;;;;;;6.43;2.50;;;;;;;;;;5035006;28;20775;-86
2023/05/05 11:15:55;;;;;;;6.63;2.90;;;;;;;;;;5016881;28;20425;-89
2023/05/05 11:18:37;;;;;;;8.17;2.87;;;;;;;;;;5016345;28;20418;-88
2023/05/05 11:21:14;;;;;;;2.60;2.37;;;;;;;;;;5016973;28;20927;-85
2023/05/05 11:23:41;;;;;;;4.50;2.53;;;;;;;;;;5017092;28;20424;-89
2023/05/05 11:26:08;;;;;;;5.30;2.20;;;;;;;;;;5033646;28;20904;-87
2023/05/05 11:28:33;;;;;;;2.70;1.77;;;;;;;;;;5016164;28;20425;-87
2023/05/05 11:30:59;;;;;;;3.67;2.33;;;;;;;;;;5016189;28;20478;-88
2023/05/05 11:33:29;;;;;;;4.10;1.77;;;;;;;;;;5034028;28;20923;-85
2023/05/05 11:35:58;;;;;;;5.80;2.63;;;;;;;;;;5034614;28;20471;-87
2023/05/05 11:38:42;;;;;;;9.30;3.10;;;;;;;;;;5034774;28;20417;-86
2023/05/05 11:41:15;;;;;;;3.50;1.67;;;;;;;;;;5034594;28;20420;-87
2023/05/05 11:43:41;;;;;;;4.60;2.93;;;;;;;;;;5018514;28;20439;-85
2023/05/05 11:46:11;;;;;;;2.73;1.20;;;;;;;;;;5034626;28;20522;-87
2023/05/05 11:48:47;;;;;;;3.90;2.10;;;;;;;;;;5036684;28;20469;-86
2023/05/05 11:51:13;;;;;;;6.40;1.90;;;;;;;;;;5023393;28;21029;-86
2023/05/05 11:53:43;;;;;;;5.10;1.57;;;;;;;;;;5048972;28;20423;-87
2023/05/05 11:56:09;;;;;;;5.43;2.20;;;;;;;;;;5054698;28;20425;-90
2023/05/05 11:58:35;;;;;;;5.63;1.77;;;;;;;;;;5053911;28;20786;-86
2023/05/05 12:01:07;;;;;;;6.83;3.10;;;;;;;;;;5035317;28;20422;-86
2023/05/05 12:03:34;;;;;;;5.10;2.40;;;;;;;;;;5054339;28;20411;-89
2023/05/05 12:06:00;;;;;;;6.10;2.13;;;;;;;;;;5057667;28;20818;-88
2023/05/05 12:08:27;;;;;;;3.53;1.50;;;;;;;;;;5044031;28;20426;-91
2023/05/05 12:10:52;;;;;;;4.20;1.90;;;;;;;;;;5043395;28;20201;-90
2023/05/05 12:13:19;;;;;;;4.53;1.80;;;;;;;;;;5043308;28;20454;-89
2023/05/05 12:15:45;;;;;;;2.87;2.17;;;;;;;;;;5038528;28;20900;-87
2023/05/05 12:18:18;;;;;;;5.70;1.87;;;;;;;;;;5037674;28;20415;-89
2023/05/05 12:20:46;;;;;;;5.67;2.50;;;;;;;;;;5044107;28;20413;-89
2023/05/05 12:23:13;;;;;;;3.67;2.23;;;;;;;;;;5040436;28;20412;-84
2023/05/05 12:25:39;;;;;;;5.63;2.53;;;;;;;;;;5053416;28;20412;-85
2023/05/05 12:28:08;;;;;;;4.80;1.50;;;;;;;;;;5053424;28;20430;-85
2023/05/05 12:30:34;;;;;;;3.90;2.10;;;;;;;;;;5052950;28;20471;-84
2023/05/05 12:33:02;;;;;;;5.20;2.30;;;;;;;;;;5053011;28;20407;-86
2023/05/05 12:35:28;;;;;;;4.07;2.10;;;;;;;;;;5052932;28;20407;-85
2023/05/05 12:37:54;;;;;;;3.40;1.83;;;;;;;;;;5052993;28;20477;-85
2023/05/05 12:40:39;;;;;;;3.90;2.00;;;;;;;;;;5052548;28;20488;-88
2023/05/05 12:43:08;;;;;;;5.30;1.83;;;;;;;;;;5034977;28;20980;-85
2023/05/05 12:45:34;;;;;;;3.03;1.73;;;;;;;;;;5052881;28;20417;-86
2023/05/05 12:48:00;;;;;;;5.70;2.60;;;;;;;;;;5031148;28;20947;-84
2023/05/05 12:50:30;;;;;;;5.90;2.90;;;;;;;;;;5032761;28;20510;-87
2023/05/05 12:52:56;;;;;;;4.90;1.40;;;;;;;;;;5034671;28;20411;-87
2023/05/05 12:55:35;;;;;;;2.30;1.70;;;;;;;;;;5037318;28;20415;-85
2023/05/05 12:58:03;;;;;;;7.37;3.27;;;;;;;;;;5037125;28;20399;-87
2023/05/05 13:00:29;;;;;;;6.20;2.60;;;;;;;;;;5019278;28;20405;-86
2023/05/05 13:02:55;;;;;;;3.53;1.57;;;;;;;;;;5036860;28;20403;-86
2023/05/05 13:05:31;;;;;;;5.70;2.80;;;;;;;;;;5036962;28;20551;-85
2023/05/05 13:07:57;;;;;;;3.53;2.40;;;;;;;;;;5036728;28;20428;-85
2023/05/05 13:10:23;;;;;;;4.57;2.23;;;;;;;;;;5036465;28;20988;-87
2023/05/05 13:12:50;;;;;;;4.63;3.00;;;;;;;;;;5036829;28;20402;-87
2023/05/05 13:15:19;;;;;;;4.33;2.57;;;;;;;;;;5036630;28;20419;-86
2023/05/05 13:17:45;;;;;;;4.87;2.30;;;;;;;;;;5036694;28;20920;-85
2023/05/05 13:20:11;;;;;;;5.73;2.80;;;;;;;;;;5036871;28;20411;-85
2023/05/05 13:22:37;;;;;;;7.90;1.97;;;;;;;;;;5036535;28;20410;-84
2023/05/05 13:25:03;;;;;;;2.20;1.40;;;;;;;;;;5036123;28;20413;-84
2023/05/05 13:27:29;;;;;;;5.70;2.30;;;;;;;;;;5036344;28;20872;-84
2023/05/05 13:30:04;;;;;;;4.07;1.90;;;;;;;;;;5043477;28;20476;-84
2023/05/05 13:32:30;;;;;;;3.43;1.33;;;;;;;;;;5047669;28;20184;-85
2023/05/05 13:34:56;;;;;;;3.00;2.10;;;;;;;;;;5048033;28;20899;-84
2023/05/05 13:37:23;;;;;;;4.40;1.47;;;;;;;;;;5048137;28;20184;-84
2023/05/05 13:39:49;;;;;;;5.07;2.03;;;;;;;;;;5039293;28;20763;-82
2023/05/05 13:42:15;;;;;;;4.13;1.80;;;;;;;;;;5044122;28;20426;-83
2023/05/05 13:44:41;;;;;;;4.00;1.40;;;;;;;;;;5055698;28;20773;-82
2023/05/05 13:47:07;;;;;;;3.50;1.90;;;;;;;;;;5055673;28;20408;-84
2023/05/05 13:49:34;;;;;;;3.70;1.90;;;;;;;;;;5055530;28;20177;-84
2023/05/05 13:52:00;;;;;;;7.17;2.57;;;;;;;;;;5055533;28;20478;-84
2023/05/05 13:54:26;;;;;;;4.40;1.23;;;;;;;;;;5037425;28;20948;-86
2023/05/05 13:56:52;;;;;;;5.17;1.40;;;;;;;;;;5055601;28;20412;-83
2023/05/05 13:59:18;;;;;;;4.87;2.40;;;;;;;;;;5055318;28;20462;-84
2023/05/05 14:01:44;;;;;;;6.50;1.53;;;;;;;;;;5045950;28;20176;-86
2023/05/05 14:04:10;;;;;;;4.73;1.47;;;;;;;;;;5025065;28;20213;-85
2023/05/05 14:06:36;;;;;;;4.27;1.60;;;;;;;;;;5024722;28;20438;-84
2023/05/05 14:09:04;;;;;;;2.73;1.50;;;;;;;;;;5026796;28;20918;-82
2023/05/05 14:11:30;;;;;;;3.47;2.30;;;;;;;;;;5041988;28;20208;-82
2023/05/05 14:13:56;;;;;;;3.47;1.90;;;;;;;;;;5042735;28;20420;-85
2023/05/05 14:16:22;;;;;;;4.03;1.80;;;;;;;;;;5044450;28;20256;-85
2023/05/05 14:18:48;;;;;;;2.73;1.20;;;;;;;;;;5044462;28;20950;-83
2023/05/05 14:21:14;;;;;;;2.40;1.77;;;;;;;;;;5025031;28;20475;-87
2023/05/05 14:23:40;;;;;;;4.00;1.13;;;;;;;;;;5023994;28;20177;-85
2023/05/05 14:26:07;;;;;;;1.80;1.37;;;;;;;;;;5089989;22;20173;-84
2023/05/05 14:28:33;;;;;;;5.90;1.73;;;;;;;;;;5034201;28;20429;-85
2023/05/05 14:30:59;;;;;;;3.97;1.43;;;;;;;;;;5034788;28;20514;-83
2023/05/05 14:33:25;;;;;;;8.87;2.47;;;;;;;;;;5016975;28;20184;-84
2023/05/05 14:35:51;;;;;;;4.73;1.40;;;;;;;;;;5034666;28;20201;-85
2023/05/05 14:38:17;;;;;;;3.90;1.60;;;;;;;;;;5030978;28;20429;-84
2023/05/05 14:40:43;;;;;;;3.13;1.27;;;;;;;;;;5034093;28;20511;-87
2023/05/05 14:43:09;;;;;;;4.53;2.00;;;;;;;;;;5034257;28;20408;-85
2023/05/05 14:45:35;;;;;;;5.57;1.60;;;;;;;;;;5034599;28;20933;-85